sensor_id;sensor_type;location;lat;lon;timestamp;temperature;humidity
23669;DHT22;12011;47.422;15.018;2022-10-23T00:00:49;9.70;99.90
23669;DHT22;12011;47.422;15.018;2022-10-23T00:03:18;9.70;99.90
23669;DHT22;12011;47.422;15.018;2022-10-23T00:05:50;9.80;99.90
23669;DHT22;12011;47.422;15.018;2022-10-23T00:08:20;9.80;99.90
23669;DHT22;12011;47.422;15.018;2022-10-23T00:10:54;9.80;99.90
23669;DHT22;12011;47.422;15.018;2022-10-23T00:13:24;9.80;99.90
23669;DHT22;12011;47.422;15.018;2022-10-23T00:15:54;9.80;99.90
23669;DHT22;12011;47.422;15.018;2022-10-23T00:18:25;9.80;99.90
23669;DHT22;12011;47.422;15.018;2022-10-23T00:20:58;9.80;99.90
23669;DHT22;12011;47.422;15.018;2022-10-23T00:23:30;9.90;99.90
23669;DHT22;12011;47.422;15.018;2022-10-23T00:26:06;9.90;99.90
23669;DHT22;12011;47.422;15.018;2022-10-23T00:28:46;9.80;99.90
23669;DHT22;12011;47.422;15.018;2022-10-23T00:31:20;9.90;99.90
23669;DHT22;12011;47.422;15.018;2022-10-23T00:33:54;9.90;99.90
23669;DHT22;12011;47.422;15.018;2022-10-23T00:36:24;9.80;99.90
23669;DHT22;12011;47.422;15.018;2022-10-23T00:38:56;9.90;99.90
23669;DHT22;12011;47.422;15.018;2022-10-23T00:41:29;9.90;99.90
23669;DHT22;12011;47.422;15.018;2022-10-23T00:44:06;9.90;99.90
23669;DHT22;12011;47.422;15.018;2022-10-23T00:46:40;9.80;99.90
23669;DHT22;12011;47.422;15.018;2022-10-23T00:49:13;9.80;99.90
23669;DHT22;12011;47.422;15.018;2022-10-23T00:51:48;9.80;99.90
23669;DHT22;12011;47.422;15.018;2022-10-23T00:54:26;9.80;99.90
23669;DHT22;12011;47.422;15.018;2022-10-23T00:57:05;9.80;99.90
23669;DHT22;12011;47.422;15.018;2022-10-23T00:59:38;9.80;99.90
23669;DHT22;12011;47.422;15.018;2022-10-23T01:02:09;9.90;99.90
23669;DHT22;12011;47.422;15.018;2022-10-23T01:04:40;9.80;99.90
23669;DHT22;12011;47.422;15.018;2022-10-23T01:07:19;9.80;99.90
23669;DHT22;12011;47.422;15.018;2022-10-23T01:10:02;9.80;99.90
23669;DHT22;12011;47.422;15.018;2022-10-23T01:12:45;9.80;99.90
23669;DHT22;12011;47.422;15.018;2022-10-23T01:15:27;9.80;99.90
23669;DHT22;12011;47.422;15.018;2022-10-23T01:18:09;9.80;99.90
23669;DHT22;12011;47.422;15.018;2022-10-23T01:20:51;9.80;99.90
23669;DHT22;12011;47.422;15.018;2022-10-23T01:27:09;9.80;99.90
23669;DHT22;12011;47.422;15.018;2022-10-23T01:29:49;9.80;99.90
23669;DHT22;12011;47.422;15.018;2022-10-23T01:32:37;9.80;99.90
23669;DHT22;12011;47.422;15.018;2022-10-23T01:35:15;9.80;99.90
23669;DHT22;12011;47.422;15.018;2022-10-23T01:38:00;9.80;99.90
23669;DHT22;12011;47.422;15.018;2022-10-23T01:40:40;9.80;99.90
23669;DHT22;12011;47.422;15.018;2022-10-23T01:43:20;9.80;99.90
23669;DHT22;12011;47.422;15.018;2022-10-23T01:45:58;9.70;99.90
23669;DHT22;12011;47.422;15.018;2022-10-23T01:48:33;9.80;99.90
23669;DHT22;12011;47.422;15.018;2022-10-23T01:51:08;9.70;99.90
23669;DHT22;12011;47.422;15.018;2022-10-23T01:53:44;9.70;99.90
23669;DHT22;12011;47.422;15.018;2022-10-23T01:56:20;9.80;99.90
23669;DHT22;12011;47.422;15.018;2022-10-23T01:59:00;9.80;99.90
23669;DHT22;12011;47.422;15.018;2022-10-23T02:01:42;9.80;99.90
23669;DHT22;12011;47.422;15.018;2022-10-23T02:04:20;9.80;99.90
23669;DHT22;12011;47.422;15.018;2022-10-23T02:06:55;9.80;99.90
23669;DHT22;12011;47.422;15.018;2022-10-23T02:09:24;9.80;99.90
23669;DHT22;12011;47.422;15.018;2022-10-23T02:12:00;9.80;99.90
23669;DHT22;12011;47.422;15.018;2022-10-23T02:14:43;9.80;99.90
23669;DHT22;12011;47.422;15.018;2022-10-23T02:17:23;9.80;99.90
23669;DHT22;12011;47.422;15.018;2022-10-23T02:20:06;9.80;99.90
23669;DHT22;12011;47.422;15.018;2022-10-23T02:22:52;9.80;99.90
23669;DHT22;12011;47.422;15.018;2022-10-23T02:25:31;9.80;99.90
23669;DHT22;12011;47.422;15.018;2022-10-23T02:28:10;9.70;99.90
23669;DHT22;12011;47.422;15.018;2022-10-23T02:30:49;9.70;99.90
23669;DHT22;12011;47.422;15.018;2022-10-23T02:33:19;9.60;99.90
23669;DHT22;12011;47.422;15.018;2022-10-23T02:35:49;9.60;99.90
23669;DHT22;12011;47.422;15.018;2022-10-23T02:38:43;9.60;99.90
23669;DHT22;12011;47.422;15.018;2022-10-23T02:41:23;9.60;99.90
23669;DHT22;12011;47.422;15.018;2022-10-23T02:44:24;9.60;99.90
23669;DHT22;12011;47.422;15.018;2022-10-23T02:47:14;9.60;99.90
23669;DHT22;12011;47.422;15.018;2022-10-23T02:50:00;9.70;99.90
23669;DHT22;12011;47.422;15.018;2022-10-23T02:52:43;9.70;99.90
23669;DHT22;12011;47.422;15.018;2022-10-23T02:55:30;9.70;99.90
23669;DHT22;12011;47.422;15.018;2022-10-23T02:58:14;9.70;99.90
23669;DHT22;12011;47.422;15.018;2022-10-23T03:00:54;9.60;99.90
23669;DHT22;12011;47.422;15.018;2022-10-23T03:03:35;9.70;99.90
23669;DHT22;12011;47.422;15.018;2022-10-23T03:06:08;9.60;99.90
23669;DHT22;12011;47.422;15.018;2022-10-23T03:08:42;9.60;99.90
23669;DHT22;12011;47.422;15.018;2022-10-23T03:11:12;9.70;99.90
23669;DHT22;12011;47.422;15.018;2022-10-23T03:13:42;9.60;99.90
23669;DHT22;12011;47.422;15.018;2022-10-23T03:16:11;9.60;99.90
23669;DHT22;12011;47.422;15.018;2022-10-23T03:18:51;9.60;99.90
23669;DHT22;12011;47.422;15.018;2022-10-23T03:21:20;9.60;99.90
23669;DHT22;12011;47.422;15.018;2022-10-23T03:23:52;9.60;99.90
23669;DHT22;12011;47.422;15.018;2022-10-23T03:26:36;9.50;99.90
23669;DHT22;12011;47.422;15.018;2022-10-23T03:29:05;9.40;99.90
23669;DHT22;12011;47.422;15.018;2022-10-23T03:31:41;9.40;99.90
23669;DHT22;12011;47.422;15.018;2022-10-23T03:34:13;9.30;99.90
23669;DHT22;12011;47.422;15.018;2022-10-23T03:36:44;9.40;99.90
23669;DHT22;12011;47.422;15.018;2022-10-23T03:39:14;9.30;99.90
23669;DHT22;12011;47.422;15.018;2022-10-23T03:41:44;9.30;99.90
23669;DHT22;12011;47.422;15.018;2022-10-23T03:44:16;9.40;99.90
23669;DHT22;12011;47.422;15.018;2022-10-23T03:46:46;9.40;99.90
23669;DHT22;12011;47.422;15.018;2022-10-23T03:49:19;9.40;99.90
23669;DHT22;12011;47.422;15.018;2022-10-23T03:51:49;9.40;99.90
23669;DHT22;12011;47.422;15.018;2022-10-23T03:54:22;9.40;99.90
23669;DHT22;12011;47.422;15.018;2022-10-23T03:56:53;9.40;99.90
23669;DHT22;12011;47.422;15.018;2022-10-23T03:59:23;9.40;99.90
23669;DHT22;12011;47.422;15.018;2022-10-23T04:01:53;9.40;99.90
23669;DHT22;12011;47.422;15.018;2022-10-23T04:04:29;9.40;99.90
23669;DHT22;12011;47.422;15.018;2022-10-23T04:06:59;9.40;99.90
23669;DHT22;12011;47.422;15.018;2022-10-23T04:09:28;9.40;99.90
23669;DHT22;12011;47.422;15.018;2022-10-23T04:11:58;9.40;99.90
23669;DHT22;12011;47.422;15.018;2022-10-23T04:14:28;9.40;99.90
23669;DHT22;12011;47.422;15.018;2022-10-23T04:16:59;9.40;99.90
23669;DHT22;12011;47.422;15.018;2022-10-23T04:19:31;9.40;99.90
23669;DHT22;12011;47.422;15.018;2022-10-23T04:22:00;9.40;99.90
23669;DHT22;12011;47.422;15.018;2022-10-23T04:24:30;9.30;99.90
23669;DHT22;12011;47.422;15.018;2022-10-23T04:27:01;9.30;99.90
23669;DHT22;12011;47.422;15.018;2022-10-23T04:29:30;9.30;99.90
23669;DHT22;12011;47.422;15.018;2022-10-23T04:32:00;9.30;99.90
23669;DHT22;12011;47.422;15.018;2022-10-23T04:34:32;9.30;99.90
23669;DHT22;12011;47.422;15.018;2022-10-23T04:37:02;9.30;99.90
23669;DHT22;12011;47.422;15.018;2022-10-23T04:39:32;9.20;99.90
23669;DHT22;12011;47.422;15.018;2022-10-23T04:42:02;9.20;99.90
23669;DHT22;12011;47.422;15.018;2022-10-23T04:44:32;9.20;99.90
23669;DHT22;12011;47.422;15.018;2022-10-23T04:47:01;9.20;99.90
23669;DHT22;12011;47.422;15.018;2022-10-23T04:49:37;9.20;99.90
23669;DHT22;12011;47.422;15.018;2022-10-23T04:52:22;9.20;99.90
23669;DHT22;12011;47.422;15.018;2022-10-23T04:55:26;9.20;99.90
23669;DHT22;12011;47.422;15.018;2022-10-23T04:58:11;9.30;99.90
23669;DHT22;12011;47.422;15.018;2022-10-23T05:00:43;9.30;99.90
23669;DHT22;12011;47.422;15.018;2022-10-23T05:03:19;9.30;99.90
23669;DHT22;12011;47.422;15.018;2022-10-23T05:05:53;9.30;99.90
23669;DHT22;12011;47.422;15.018;2022-10-23T05:08:42;9.20;99.90
23669;DHT22;12011;47.422;15.018;2022-10-23T05:11:37;9.30;99.90
23669;DHT22;12011;47.422;15.018;2022-10-23T05:14:08;9.30;99.90
23669;DHT22;12011;47.422;15.018;2022-10-23T05:16:44;9.30;99.90
23669;DHT22;12011;47.422;15.018;2022-10-23T05:19:21;9.30;99.90
23669;DHT22;12011;47.422;15.018;2022-10-23T05:21:56;9.30;99.90
23669;DHT22;12011;47.422;15.018;2022-10-23T05:24:40;9.30;99.90
23669;DHT22;12011;47.422;15.018;2022-10-23T05:27:11;9.30;99.90
23669;DHT22;12011;47.422;15.018;2022-10-23T05:29:41;9.30;99.90
23669;DHT22;12011;47.422;15.018;2022-10-23T05:32:14;9.30;99.90
23669;DHT22;12011;47.422;15.018;2022-10-23T05:34:44;9.30;99.90
23669;DHT22;12011;47.422;15.018;2022-10-23T05:37:16;9.30;99.90
23669;DHT22;12011;47.422;15.018;2022-10-23T05:39:47;9.30;99.90
23669;DHT22;12011;47.422;15.018;2022-10-23T05:42:16;9.30;99.90
23669;DHT22;12011;47.422;15.018;2022-10-23T05:44:46;9.30;99.90
23669;DHT22;12011;47.422;15.018;2022-10-23T05:47:34;9.30;99.90
23669;DHT22;12011;47.422;15.018;2022-10-23T05:50:24;9.30;99.90
23669;DHT22;12011;47.422;15.018;2022-10-23T05:53:19;9.40;99.90
23669;DHT22;12011;47.422;15.018;2022-10-23T05:56:06;9.40;99.90
23669;DHT22;12011;47.422;15.018;2022-10-23T05:59:03;9.40;99.90
23669;DHT22;12011;47.422;15.018;2022-10-23T06:01:59;9.50;99.90
23669;DHT22;12011;47.422;15.018;2022-10-23T06:04:48;9.40;99.90
23669;DHT22;12011;47.422;15.018;2022-10-23T06:07:32;9.40;99.90
23669;DHT22;12011;47.422;15.018;2022-10-23T06:10:07;9.50;99.90
23669;DHT22;12011;47.422;15.018;2022-10-23T06:12:42;9.50;99.90
23669;DHT22;12011;47.422;15.018;2022-10-23T06:15:51;9.40;99.90
23669;DHT22;12011;47.422;15.018;2022-10-23T06:22:55;9.50;99.90
23669;DHT22;12011;47.422;15.018;2022-10-23T06:29:51;9.60;99.90
23669;DHT22;12011;47.422;15.018;2022-10-23T06:32:36;9.70;99.90
23669;DHT22;12011;47.422;15.018;2022-10-23T06:35:33;9.70;99.90
23669;DHT22;12011;47.422;15.018;2022-10-23T06:38:14;9.80;99.90
23669;DHT22;12011;47.422;15.018;2022-10-23T06:41:00;9.80;99.90
23669;DHT22;12011;47.422;15.018;2022-10-23T06:43:57;9.90;99.90
23669;DHT22;12011;47.422;15.018;2022-10-23T06:46:59;9.90;99.90
23669;DHT22;12011;47.422;15.018;2022-10-23T06:50:09;9.90;99.90
23669;DHT22;12011;47.422;15.018;2022-10-23T06:53:18;9.90;99.90
23669;DHT22;12011;47.422;15.018;2022-10-23T06:56:08;10.00;99.90
23669;DHT22;12011;47.422;15.018;2022-10-23T06:58:52;10.10;99.90
23669;DHT22;12011;47.422;15.018;2022-10-23T07:01:35;10.10;99.90
23669;DHT22;12011;47.422;15.018;2022-10-23T07:04:20;10.00;99.90
23669;DHT22;12011;47.422;15.018;2022-10-23T07:08:09;10.10;99.90
23669;DHT22;12011;47.422;15.018;2022-10-23T07:11:19;10.20;99.90
23669;DHT22;12011;47.422;15.018;2022-10-23T07:14:04;10.50;99.90
23669;DHT22;12011;47.422;15.018;2022-10-23T07:19:55;11.20;99.90
23669;DHT22;12011;47.422;15.018;2022-10-23T07:22:57;11.40;99.90
23669;DHT22;12011;47.422;15.018;2022-10-23T07:25:44;11.50;99.90
23669;DHT22;12011;47.422;15.018;2022-10-23T07:28:20;11.50;99.90
23669;DHT22;12011;47.422;15.018;2022-10-23T07:31:08;11.20;99.90
23669;DHT22;12011;47.422;15.018;2022-10-23T07:34:08;11.30;99.90
23669;DHT22;12011;47.422;15.018;2022-10-23T07:36:41;11.40;99.90
23669;DHT22;12011;47.422;15.018;2022-10-23T07:39:13;11.50;99.90
23669;DHT22;12011;47.422;15.018;2022-10-23T07:41:50;11.40;99.90
23669;DHT22;12011;47.422;15.018;2022-10-23T07:44:24;11.40;99.90
23669;DHT22;12011;47.422;15.018;2022-10-23T07:46:55;11.30;99.90
23669;DHT22;12011;47.422;15.018;2022-10-23T07:49:26;11.20;99.90
23669;DHT22;12011;47.422;15.018;2022-10-23T07:51:58;11.20;99.90
23669;DHT22;12011;47.422;15.018;2022-10-23T07:54:38;11.00;99.90
23669;DHT22;12011;47.422;15.018;2022-10-23T07:57:28;11.10;99.90
23669;DHT22;12011;47.422;15.018;2022-10-23T08:00:10;11.20;99.90
23669;DHT22;12011;47.422;15.018;2022-10-23T08:02:40;11.20;99.90
23669;DHT22;12011;47.422;15.018;2022-10-23T08:05:11;11.30;99.90
23669;DHT22;12011;47.422;15.018;2022-10-23T08:07:51;11.50;99.90
23669;DHT22;12011;47.422;15.018;2022-10-23T08:10:21;11.60;99.90
23669;DHT22;12011;47.422;15.018;2022-10-23T08:12:51;11.60;99.90
23669;DHT22;12011;47.422;15.018;2022-10-23T08:15:31;11.60;99.90
23669;DHT22;12011;47.422;15.018;2022-10-23T08:18:07;11.50;99.90
23669;DHT22;12011;47.422;15.018;2022-10-23T08:20:45;11.50;99.90
23669;DHT22;12011;47.422;15.018;2022-10-23T08:23:21;11.40;99.90
23669;DHT22;12011;47.422;15.018;2022-10-23T08:25:55;11.40;99.90
23669;DHT22;12011;47.422;15.018;2022-10-23T08:28:29;11.70;99.90
23669;DHT22;12011;47.422;15.018;2022-10-23T08:31:06;11.90;99.90
23669;DHT22;12011;47.422;15.018;2022-10-23T08:33:37;12.00;99.90
23669;DHT22;12011;47.422;15.018;2022-10-23T08:36:16;12.30;99.90
23669;DHT22;12011;47.422;15.018;2022-10-23T08:38:49;12.40;99.90
23669;DHT22;12011;47.422;15.018;2022-10-23T08:41:26;12.50;99.90
23669;DHT22;12011;47.422;15.018;2022-10-23T08:44:11;12.70;99.90
23669;DHT22;12011;47.422;15.018;2022-10-23T08:46:51;13.00;99.40
23669;DHT22;12011;47.422;15.018;2022-10-23T08:49:54;13.00;97.90
23669;DHT22;12011;47.422;15.018;2022-10-23T08:52:34;13.20;99.90
23669;DHT22;12011;47.422;15.018;2022-10-23T08:55:15;13.50;99.90
23669;DHT22;12011;47.422;15.018;2022-10-23T08:57:54;13.50;97.10
23669;DHT22;12011;47.422;15.018;2022-10-23T09:00:27;13.60;97.20
23669;DHT22;12011;47.422;15.018;2022-10-23T09:03:01;13.70;94.40
23669;DHT22;12011;47.422;15.018;2022-10-23T09:05:41;14.00;93.50
23669;DHT22;12011;47.422;15.018;2022-10-23T09:08:33;14.00;94.40
23669;DHT22;12011;47.422;15.018;2022-10-23T09:11:20;13.90;92.00
23669;DHT22;12011;47.422;15.018;2022-10-23T09:14:11;13.80;95.00
23669;DHT22;12011;47.422;15.018;2022-10-23T09:17:07;13.60;95.30
23669;DHT22;12011;47.422;15.018;2022-10-23T09:19:45;13.60;94.80
23669;DHT22;12011;47.422;15.018;2022-10-23T09:22:15;13.60;96.00
23669;DHT22;12011;47.422;15.018;2022-10-23T09:24:45;13.60;94.30
23669;DHT22;12011;47.422;15.018;2022-10-23T09:27:17;13.80;94.80
23669;DHT22;12011;47.422;15.018;2022-10-23T09:29:48;13.70;89.10
23669;DHT22;12011;47.422;15.018;2022-10-23T09:32:18;14.10;90.90
23669;DHT22;12011;47.422;15.018;2022-10-23T09:34:51;14.00;93.70
23669;DHT22;12011;47.422;15.018;2022-10-23T09:37:24;14.10;90.80
23669;DHT22;12011;47.422;15.018;2022-10-23T09:40:14;14.10;90.00
23669;DHT22;12011;47.422;15.018;2022-10-23T09:43:00;14.00;90.10
23669;DHT22;12011;47.422;15.018;2022-10-23T09:45:32;14.00;84.50
23669;DHT22;12011;47.422;15.018;2022-10-23T09:48:12;14.20;92.90
23669;DHT22;12011;47.422;15.018;2022-10-23T09:50:54;14.50;88.00
23669;DHT22;12011;47.422;15.018;2022-10-23T09:53:37;14.80;87.70
23669;DHT22;12011;47.422;15.018;2022-10-23T09:56:29;14.90;83.00
23669;DHT22;12011;47.422;15.018;2022-10-23T09:59:15;15.10;84.00
23669;DHT22;12011;47.422;15.018;2022-10-23T10:01:51;15.00;81.70
23669;DHT22;12011;47.422;15.018;2022-10-23T10:04:55;15.00;80.90
23669;DHT22;12011;47.422;15.018;2022-10-23T10:07:26;14.80;84.80
23669;DHT22;12011;47.422;15.018;2022-10-23T10:09:57;14.80;80.20
23669;DHT22;12011;47.422;15.018;2022-10-23T10:12:42;14.50;83.20
23669;DHT22;12011;47.422;15.018;2022-10-23T10:15:28;14.60;84.50
23669;DHT22;12011;47.422;15.018;2022-10-23T10:18:09;14.60;84.20
23669;DHT22;12011;47.422;15.018;2022-10-23T10:20:57;14.70;78.80
23669;DHT22;12011;47.422;15.018;2022-10-23T10:23:43;15.20;77.40
23669;DHT22;12011;47.422;15.018;2022-10-23T10:26:28;15.40;74.30
23669;DHT22;12011;47.422;15.018;2022-10-23T10:29:14;15.40;75.70
23669;DHT22;12011;47.422;15.018;2022-10-23T10:32:04;15.20;76.80
23669;DHT22;12011;47.422;15.018;2022-10-23T10:34:44;15.10;78.40
23669;DHT22;12011;47.422;15.018;2022-10-23T10:37:33;15.10;74.70
23669;DHT22;12011;47.422;15.018;2022-10-23T10:40:15;15.50;75.40
23669;DHT22;12011;47.422;15.018;2022-10-23T10:43:09;15.80;73.80
23669;DHT22;12011;47.422;15.018;2022-10-23T10:45:47;16.10;69.20
23669;DHT22;12011;47.422;15.018;2022-10-23T10:48:41;16.90;67.60
23669;DHT22;12011;47.422;15.018;2022-10-23T10:51:49;17.50;64.70
23669;DHT22;12011;47.422;15.018;2022-10-23T10:54:40;17.40;63.80
23669;DHT22;12011;47.422;15.018;2022-10-23T10:57:28;17.20;64.10
23669;DHT22;12011;47.422;15.018;2022-10-23T11:00:04;17.60;63.60
23669;DHT22;12011;47.422;15.018;2022-10-23T11:02:47;17.90;64.00
23669;DHT22;12011;47.422;15.018;2022-10-23T11:05:30;17.70;64.40
23669;DHT22;12011;47.422;15.018;2022-10-23T11:08:11;17.00;67.20
23669;DHT22;12011;47.422;15.018;2022-10-23T11:10:52;16.90;67.60
23669;DHT22;12011;47.422;15.018;2022-10-23T11:13:27;16.90;66.90
23669;DHT22;12011;47.422;15.018;2022-10-23T11:16:12;17.10;67.80
23669;DHT22;12011;47.422;15.018;2022-10-23T11:19:05;17.00;66.10
23669;DHT22;12011;47.422;15.018;2022-10-23T11:21:46;17.30;65.90
23669;DHT22;12011;47.422;15.018;2022-10-23T11:24:52;17.60;64.30
23669;DHT22;12011;47.422;15.018;2022-10-23T11:31:01;18.70;60.20
23669;DHT22;12011;47.422;15.018;2022-10-23T11:34:07;18.90;60.60
23669;DHT22;12011;47.422;15.018;2022-10-23T11:36:59;19.00;61.20
23669;DHT22;12011;47.422;15.018;2022-10-23T11:39:32;18.90;60.40
23669;DHT22;12011;47.422;15.018;2022-10-23T11:42:13;19.20;60.00
23669;DHT22;12011;47.422;15.018;2022-10-23T11:44:46;19.10;59.30
23669;DHT22;12011;47.422;15.018;2022-10-23T11:47:31;18.90;60.00
23669;DHT22;12011;47.422;15.018;2022-10-23T11:50:13;18.90;60.20
23669;DHT22;12011;47.422;15.018;2022-10-23T11:53:06;18.60;61.20
23669;DHT22;12011;47.422;15.018;2022-10-23T11:55:58;18.30;60.40
23669;DHT22;12011;47.422;15.018;2022-10-23T11:58:42;18.30;61.20
23669;DHT22;12011;47.422;15.018;2022-10-23T12:01:23;17.60;62.80
23669;DHT22;12011;47.422;15.018;2022-10-23T12:04:00;17.70;63.70
23669;DHT22;12011;47.422;15.018;2022-10-23T12:06:39;17.70;63.50
23669;DHT22;12011;47.422;15.018;2022-10-23T12:09:25;17.90;64.30
23669;DHT22;12011;47.422;15.018;2022-10-23T12:12:25;18.20;68.10
23669;DHT22;12011;47.422;15.018;2022-10-23T12:15:19;18.20;62.80
23669;DHT22;12011;47.422;15.018;2022-10-23T12:17:52;18.20;64.30
23669;DHT22;12011;47.422;15.018;2022-10-23T12:20:37;17.90;63.30
23669;DHT22;12011;47.422;15.018;2022-10-23T12:23:42;17.80;62.80
23669;DHT22;12011;47.422;15.018;2022-10-23T12:26:46;18.20;63.40
23669;DHT22;12011;47.422;15.018;2022-10-23T12:29:36;18.50;60.80
23669;DHT22;12011;47.422;15.018;2022-10-23T12:32:39;18.80;58.90
23669;DHT22;12011;47.422;15.018;2022-10-23T12:38:43;18.20;61.40
23669;DHT22;12011;47.422;15.018;2022-10-23T12:41:16;17.70;64.20
23669;DHT22;12011;47.422;15.018;2022-10-23T12:43:55;17.20;64.50
23669;DHT22;12011;47.422;15.018;2022-10-23T12:46:31;17.10;66.20
23669;DHT22;12011;47.422;15.018;2022-10-23T12:49:13;16.80;65.80
23669;DHT22;12011;47.422;15.018;2022-10-23T12:51:44;16.40;71.00
23669;DHT22;12011;47.422;15.018;2022-10-23T12:54:16;15.80;72.10
23669;DHT22;12011;47.422;15.018;2022-10-23T12:56:47;15.80;77.40
23669;DHT22;12011;47.422;15.018;2022-10-23T12:59:23;15.80;77.10
23669;DHT22;12011;47.422;15.018;2022-10-23T13:01:54;15.70;79.30
23669;DHT22;12011;47.422;15.018;2022-10-23T13:04:31;15.60;79.00
23669;DHT22;12011;47.422;15.018;2022-10-23T13:07:03;15.20;79.20
23669;DHT22;12011;47.422;15.018;2022-10-23T13:09:37;15.20;85.40
23669;DHT22;12011;47.422;15.018;2022-10-23T13:12:21;15.30;83.50
23669;DHT22;12011;47.422;15.018;2022-10-23T13:15:00;15.40;83.70
23669;DHT22;12011;47.422;15.018;2022-10-23T13:17:42;15.20;81.50
23669;DHT22;12011;47.422;15.018;2022-10-23T13:20:22;15.30;86.40
23669;DHT22;12011;47.422;15.018;2022-10-23T13:22:59;15.40;84.40
23669;DHT22;12011;47.422;15.018;2022-10-23T13:25:31;15.50;82.80
23669;DHT22;12011;47.422;15.018;2022-10-23T13:28:21;15.60;91.10
23669;DHT22;12011;47.422;15.018;2022-10-23T13:31:06;15.40;86.40
23669;DHT22;12011;47.422;15.018;2022-10-23T13:36:59;15.70;85.50
23669;DHT22;12011;47.422;15.018;2022-10-23T13:39:32;15.70;79.40
23669;DHT22;12011;47.422;15.018;2022-10-23T13:42:12;15.60;77.70
23669;DHT22;12011;47.422;15.018;2022-10-23T13:44:42;15.80;78.10
23669;DHT22;12011;47.422;15.018;2022-10-23T13:47:16;15.60;78.30
23669;DHT22;12011;47.422;15.018;2022-10-23T13:49:45;15.70;79.10
23669;DHT22;12011;47.422;15.018;2022-10-23T13:52:19;16.00;82.40
23669;DHT22;12011;47.422;15.018;2022-10-23T13:54:50;16.20;80.40
23669;DHT22;12011;47.422;15.018;2022-10-23T13:57:19;16.30;78.20
23669;DHT22;12011;47.422;15.018;2022-10-23T13:59:49;16.10;78.70
23669;DHT22;12011;47.422;15.018;2022-10-23T14:02:23;16.00;78.30
23669;DHT22;12011;47.422;15.018;2022-10-23T14:04:52;16.10;78.40
23669;DHT22;12011;47.422;15.018;2022-10-23T14:07:22;15.80;79.40
23669;DHT22;12011;47.422;15.018;2022-10-23T14:09:51;15.90;85.60
23669;DHT22;12011;47.422;15.018;2022-10-23T14:12:21;16.00;84.70
23669;DHT22;12011;47.422;15.018;2022-10-23T14:14:51;16.00;80.50
23669;DHT22;12011;47.422;15.018;2022-10-23T14:17:23;15.80;78.60
23669;DHT22;12011;47.422;15.018;2022-10-23T14:19:53;15.80;80.70
23669;DHT22;12011;47.422;15.018;2022-10-23T14:22:22;15.70;82.90
23669;DHT22;12011;47.422;15.018;2022-10-23T14:24:52;15.60;81.80
23669;DHT22;12011;47.422;15.018;2022-10-23T14:27:27;15.70;81.30
23669;DHT22;12011;47.422;15.018;2022-10-23T14:30:05;15.70;85.70
23669;DHT22;12011;47.422;15.018;2022-10-23T14:32:47;15.60;85.60
23669;DHT22;12011;47.422;15.018;2022-10-23T14:35:19;15.70;84.10
23669;DHT22;12011;47.422;15.018;2022-10-23T14:37:49;15.60;89.60
23669;DHT22;12011;47.422;15.018;2022-10-23T14:40:30;15.60;86.30
23669;DHT22;12011;47.422;15.018;2022-10-23T14:43:07;15.60;87.70
23669;DHT22;12011;47.422;15.018;2022-10-23T14:45:39;15.60;82.70
23669;DHT22;12011;47.422;15.018;2022-10-23T14:48:13;15.60;85.30
23669;DHT22;12011;47.422;15.018;2022-10-23T14:50:47;15.50;86.90
23669;DHT22;12011;47.422;15.018;2022-10-23T14:53:19;15.50;85.70
23669;DHT22;12011;47.422;15.018;2022-10-23T14:56:08;15.50;86.40
23669;DHT22;12011;47.422;15.018;2022-10-23T14:58:41;15.40;87.20
23669;DHT22;12011;47.422;15.018;2022-10-23T15:01:12;15.30;84.90
23669;DHT22;12011;47.422;15.018;2022-10-23T15:03:56;15.10;90.30
23669;DHT22;12011;47.422;15.018;2022-10-23T15:06:34;15.10;93.50
23669;DHT22;12011;47.422;15.018;2022-10-23T15:09:12;15.10;91.30
23669;DHT22;12011;47.422;15.018;2022-10-23T15:11:52;14.70;92.40
23669;DHT22;12011;47.422;15.018;2022-10-23T15:14:32;14.50;94.70
23669;DHT22;12011;47.422;15.018;2022-10-23T15:17:01;14.20;95.70
23669;DHT22;12011;47.422;15.018;2022-10-23T15:19:44;14.20;98.20
23669;DHT22;12011;47.422;15.018;2022-10-23T15:22:24;14.10;98.70
23669;DHT22;12011;47.422;15.018;2022-10-23T15:24:55;14.00;99.00
23669;DHT22;12011;47.422;15.018;2022-10-23T15:27:45;13.90;99.90
23669;DHT22;12011;47.422;15.018;2022-10-23T15:30:15;13.80;99.90
23669;DHT22;12011;47.422;15.018;2022-10-23T15:33:12;13.70;99.90
23669;DHT22;12011;47.422;15.018;2022-10-23T15:35:47;13.60;99.90
23669;DHT22;12011;47.422;15.018;2022-10-23T15:38:27;13.50;99.90
23669;DHT22;12011;47.422;15.018;2022-10-23T15:41:14;13.30;99.90
23669;DHT22;12011;47.422;15.018;2022-10-23T15:43:51;13.00;99.90
23669;DHT22;12011;47.422;15.018;2022-10-23T15:46:24;12.80;99.90
23669;DHT22;12011;47.422;15.018;2022-10-23T15:48:54;12.60;99.90
23669;DHT22;12011;47.422;15.018;2022-10-23T15:51:26;12.50;99.90
23669;DHT22;12011;47.422;15.018;2022-10-23T15:53:56;12.30;99.90
23669;DHT22;12011;47.422;15.018;2022-10-23T15:56:26;12.20;99.90
23669;DHT22;12011;47.422;15.018;2022-10-23T15:58:55;12.10;99.90
23669;DHT22;12011;47.422;15.018;2022-10-23T16:01:25;11.80;99.90
23669;DHT22;12011;47.422;15.018;2022-10-23T16:03:54;11.70;99.90
23669;DHT22;12011;47.422;15.018;2022-10-23T16:06:27;11.30;99.90
23669;DHT22;12011;47.422;15.018;2022-10-23T16:08:59;11.10;99.90
23669;DHT22;12011;47.422;15.018;2022-10-23T16:11:32;11.10;99.90
23669;DHT22;12011;47.422;15.018;2022-10-23T16:14:02;11.00;99.90
23669;DHT22;12011;47.422;15.018;2022-10-23T16:16:33;11.00;99.90
23669;DHT22;12011;47.422;15.018;2022-10-23T16:19:03;11.00;99.90
23669;DHT22;12011;47.422;15.018;2022-10-23T16:21:36;10.80;99.90
23669;DHT22;12011;47.422;15.018;2022-10-23T16:24:07;10.70;99.90
23669;DHT22;12011;47.422;15.018;2022-10-23T16:26:38;10.30;99.90
23669;DHT22;12011;47.422;15.018;2022-10-23T16:29:09;10.20;99.90
23669;DHT22;12011;47.422;15.018;2022-10-23T16:31:39;10.10;99.90
23669;DHT22;12011;47.422;15.018;2022-10-23T16:34:09;9.90;99.90
23669;DHT22;12011;47.422;15.018;2022-10-23T16:36:42;9.80;99.90
23669;DHT22;12011;47.422;15.018;2022-10-23T16:39:14;9.70;99.90
23669;DHT22;12011;47.422;15.018;2022-10-23T16:42:04;9.80;99.90
23669;DHT22;12011;47.422;15.018;2022-10-23T16:44:52;9.90;99.90
23669;DHT22;12011;47.422;15.018;2022-10-23T16:47:23;9.70;99.90
23669;DHT22;12011;47.422;15.018;2022-10-23T16:49:53;9.60;99.90
23669;DHT22;12011;47.422;15.018;2022-10-23T16:52:26;9.70;99.90
23669;DHT22;12011;47.422;15.018;2022-10-23T16:54:56;9.70;99.90
23669;DHT22;12011;47.422;15.018;2022-10-23T16:57:25;9.70;99.90
23669;DHT22;12011;47.422;15.018;2022-10-23T16:59:57;9.60;99.90